Saturday, July 21, 2018, 8:41 PM EDT
Back to Local

KFWN, Sussex Airport

Location: Sussex, NJ, United States Lat: 41.2
Local Time: 8:41 PM EDT ( 0:41 GMT) Lon: -74.633
Time Zone: US/Eastern Elev: 419 ft

Show me the last for .
Show Decoded

2018-07-21 19:53 METAR KFWN 212353Z AUTO 05008KT 10SM -RA BKN046 OVC055 21/13 A3000 RMK AO2 RAB12
                 SLP155 P0000 60000 T02060128 10239 20206 58007 =
2018-07-21 18:53 METAR KFWN 212253Z AUTO 05009KT 10SM FEW046 SCT085 BKN110 21/13 A3001 RMK AO2
                 SLP159 T02110133 =
2018-07-21 17:53 METAR KFWN 212153Z AUTO 06008KT 10SM OVC090 22/14 A3001 RMK AO2 SLP160 T02220144
                 =
2018-07-21 16:53 METAR KFWN 212053Z AUTO VRB06KT 10SM OVC090 23/14 A3002 RMK AO2 SLP162 T02280144
                 56014 =
2018-07-21 15:53 METAR KFWN 211953Z AUTO 08007KT 10SM SCT110 23/15 A3002 RMK AO2 SLP164 T02330150
                 =
2018-07-21 14:53 METAR KFWN 211853Z AUTO 07009G16KT 10SM FEW110 24/15 A3004 RMK AO2 SLP170
                 T02390150 =
2018-07-21 13:53 METAR KFWN 211753Z AUTO 10007KT 10SM CLR 23/12 A3006 RMK AO2 SLP176 T02330117
                 10256 20178 56011 =
2018-07-21 12:53 METAR KFWN 211653Z AUTO 14011G15KT 10SM FEW049 24/13 A3006 RMK AO2 SLP178
                 T02440133 =
2018-07-21 11:53 METAR KFWN 211553Z AUTO 11007KT 10SM SCT045 24/14 A3008 RMK AO2 SLP183 T02440144
                 =
2018-07-21 10:53 METAR KFWN 211453Z AUTO 07009KT 10SM FEW037 OVC095 24/16 A3009 RMK AO2 SLP186
                 T02440156 58004 =
2018-07-21 09:53 METAR KFWN 211353Z AUTO VRB04KT 10SM BKN031 23/17 A3010 RMK AO2 SLP188 T02330172
                 =
2018-07-21 09:05 METAR KFWN 211305Z AUTO 04004KT 10SM SCT028 22/17 A3009 RMK AO2 T02170167 =
2018-07-21 08:53 METAR KFWN 211253Z AUTO 02005KT 10SM BKN029 21/17 A3010 RMK AO2 SLP189 T02110167
                 =
2018-07-21 07:53 METAR KFWN 211153Z AUTO 03003KT 10SM CLR 18/16 A3010 RMK AO2 SLP189 T01780161
                 10178 20133 56002 =
2018-07-21 06:53 METAR KFWN 211053Z AUTO 00000KT 10SM FEW032 15/14 A3010 RMK AO2 SLP190 T01500144
                 =
2018-07-21 05:53 METAR KFWN 210953Z AUTO 00000KT 10SM CLR 14/13 A3010 RMK AO2 SLP191 T01390133 =
2018-07-21 04:53 METAR KFWN 210853Z AUTO 00000KT 10SM FEW031 13/13 A3011 RMK AO2 SLP192 T01330133
                 58003 =
2018-07-21 03:53 METAR KFWN 210753Z AUTO 00000KT 10SM FEW033 13/13 A3011 RMK AO2 SLP193 T01330128
                 =
2018-07-21 02:53 METAR KFWN 210653Z AUTO 00000KT 10SM FEW032 14/13 A3011 RMK AO2 SLP195 T01390133
                 =
2018-07-21 01:53 METAR KFWN 210553Z AUTO 00000KT 10SM CLR 14/14 A3011 RMK AO2 SLP195 T01440139
                 10233 20144 56007 =
2018-07-21 00:53 METAR KFWN 210453Z AUTO 00000KT 10SM CLR 15/14 A3012 RMK AO2 SLP197 T01500139
                 402890122 =
2018-07-20 23:53 METAR KFWN 210353Z AUTO 00000KT 10SM CLR 16/14 A3013 RMK AO2 SLP198 T01610139 =
2018-07-20 22:53 METAR KFWN 210253Z AUTO 00000KT 10SM CLR 17/14 A3014 RMK AO2 SLP202 T01720139
                 51008 =
2018-07-20 21:53 METAR KFWN 210153Z AUTO VRB03KT 10SM CLR 21/13 A3013 RMK AO2 SLP200 T02060128 =
2018-07-20 20:53 METAR KFWN 210053Z AUTO 16005KT 10SM CLR 22/12 A3012 RMK AO2 SLP197 T02170122 =

Support USWX by starting your Amazon purchase here.